sensor_id;sensor_type;location;lat;lon;timestamp;P1;durP1;ratioP1;P2;durP2;ratioP2
38911;SDS011;28444;48.056;14.408;2022-12-18T00:01:28;75.30;;;34.42;;
38911;SDS011;28444;48.056;14.408;2022-12-18T00:04:00;81.00;;;33.92;;
38911;SDS011;28444;48.056;14.408;2022-12-18T00:06:28;75.00;;;32.67;;
38911;SDS011;28444;48.056;14.408;2022-12-18T00:08:56;70.30;;;30.88;;
38911;SDS011;28444;48.056;14.408;2022-12-18T00:11:25;73.95;;;31.70;;
38911;SDS011;28444;48.056;14.408;2022-12-18T00:13:55;67.72;;;31.35;;
38911;SDS011;28444;48.056;14.408;2022-12-18T00:16:23;60.92;;;28.58;;
38911;SDS011;28444;48.056;14.408;2022-12-18T00:18:52;65.10;;;29.50;;
38911;SDS011;28444;48.056;14.408;2022-12-18T00:21:20;67.57;;;33.35;;
38911;SDS011;28444;48.056;14.408;2022-12-18T00:23:48;65.72;;;31.65;;
38911;SDS011;28444;48.056;14.408;2022-12-18T00:26:19;64.28;;;32.05;;
38911;SDS011;28444;48.056;14.408;2022-12-18T00:28:49;66.97;;;30.33;;
38911;SDS011;28444;48.056;14.408;2022-12-18T00:31:17;74.03;;;33.95;;
38911;SDS011;28444;48.056;14.408;2022-12-18T00:33:46;73.47;;;30.67;;
38911;SDS011;28444;48.056;14.408;2022-12-18T00:36:20;78.32;;;35.88;;
38911;SDS011;28444;48.056;14.408;2022-12-18T00:38:49;78.80;;;32.60;;
38911;SDS011;28444;48.056;14.408;2022-12-18T00:41:16;92.35;;;33.58;;
38911;SDS011;28444;48.056;14.408;2022-12-18T00:44:04;72.85;;;32.10;;
38911;SDS011;28444;48.056;14.408;2022-12-18T00:46:31;79.72;;;35.70;;
38911;SDS011;28444;48.056;14.408;2022-12-18T00:48:58;77.82;;;32.83;;
38911;SDS011;28444;48.056;14.408;2022-12-18T00:51:25;79.13;;;32.80;;
38911;SDS011;28444;48.056;14.408;2022-12-18T00:53:52;70.95;;;32.85;;
38911;SDS011;28444;48.056;14.408;2022-12-18T00:56:19;87.20;;;35.28;;
38911;SDS011;28444;48.056;14.408;2022-12-18T00:58:46;79.43;;;35.38;;
38911;SDS011;28444;48.056;14.408;2022-12-18T01:01:12;80.97;;;34.58;;
38911;SDS011;28444;48.056;14.408;2022-12-18T01:03:40;76.18;;;34.70;;
38911;SDS011;28444;48.056;14.408;2022-12-18T01:06:08;71.75;;;32.85;;
38911;SDS011;28444;48.056;14.408;2022-12-18T01:08:36;70.50;;;30.50;;
38911;SDS011;28444;48.056;14.408;2022-12-18T01:11:16;63.92;;;28.00;;
38911;SDS011;28444;48.056;14.408;2022-12-18T01:13:44;67.10;;;29.92;;
38911;SDS011;28444;48.056;14.408;2022-12-18T01:16:11;61.65;;;29.70;;
38911;SDS011;28444;48.056;14.408;2022-12-18T01:18:39;59.28;;;25.52;;
38911;SDS011;28444;48.056;14.408;2022-12-18T01:21:10;60.78;;;27.02;;
38911;SDS011;28444;48.056;14.408;2022-12-18T01:23:42;57.10;;;27.15;;
38911;SDS011;28444;48.056;14.408;2022-12-18T01:26:09;61.30;;;27.95;;
38911;SDS011;28444;48.056;14.408;2022-12-18T01:28:38;50.97;;;25.75;;
38911;SDS011;28444;48.056;14.408;2022-12-18T01:34:00;57.75;;;25.52;;
38911;SDS011;28444;48.056;14.408;2022-12-18T01:36:28;53.22;;;23.75;;
38911;SDS011;28444;48.056;14.408;2022-12-18T01:38:59;52.47;;;23.80;;
38911;SDS011;28444;48.056;14.408;2022-12-18T01:41:28;45.22;;;21.73;;
38911;SDS011;28444;48.056;14.408;2022-12-18T01:47:42;44.30;;;22.10;;
38911;SDS011;28444;48.056;14.408;2022-12-18T01:50:36;38.90;;;20.60;;
38911;SDS011;28444;48.056;14.408;2022-12-18T01:53:15;42.85;;;20.92;;
38911;SDS011;28444;48.056;14.408;2022-12-18T01:55:47;46.45;;;19.42;;
38911;SDS011;28444;48.056;14.408;2022-12-18T01:58:17;47.97;;;21.30;;
38911;SDS011;28444;48.056;14.408;2022-12-18T02:00:45;43.25;;;20.95;;
38911;SDS011;28444;48.056;14.408;2022-12-18T02:03:12;45.15;;;20.45;;
38911;SDS011;28444;48.056;14.408;2022-12-18T02:08:41;50.75;;;20.73;;
38911;SDS011;28444;48.056;14.408;2022-12-18T02:14:50;44.90;;;18.92;;
38911;SDS011;28444;48.056;14.408;2022-12-18T02:17:29;42.65;;;18.48;;
38911;SDS011;28444;48.056;14.408;2022-12-18T02:20:19;40.25;;;19.10;;
38911;SDS011;28444;48.056;14.408;2022-12-18T02:26:18;36.25;;;17.80;;
38911;SDS011;28444;48.056;14.408;2022-12-18T02:29:00;46.95;;;21.85;;
38911;SDS011;28444;48.056;14.408;2022-12-18T02:31:38;38.95;;;19.13;;
38911;SDS011;28444;48.056;14.408;2022-12-18T02:34:09;38.97;;;18.55;;
38911;SDS011;28444;48.056;14.408;2022-12-18T02:36:39;51.33;;;20.95;;
38911;SDS011;28444;48.056;14.408;2022-12-18T02:39:09;42.53;;;20.80;;
38911;SDS011;28444;48.056;14.408;2022-12-18T02:41:37;34.55;;;17.85;;
38911;SDS011;28444;48.056;14.408;2022-12-18T02:44:12;62.70;;;23.15;;
38911;SDS011;28444;48.056;14.408;2022-12-18T02:46:43;226.05;;;35.58;;
38911;SDS011;28444;48.056;14.408;2022-12-18T02:49:26;202.70;;;33.63;;
38911;SDS011;28444;48.056;14.408;2022-12-18T02:52:18;208.40;;;35.35;;
38911;SDS011;28444;48.056;14.408;2022-12-18T02:55:13;136.40;;;31.65;;
38911;SDS011;28444;48.056;14.408;2022-12-18T03:01:15;62.03;;;25.58;;
38911;SDS011;28444;48.056;14.408;2022-12-18T03:03:50;51.63;;;25.27;;
38911;SDS011;28444;48.056;14.408;2022-12-18T03:06:55;61.20;;;26.10;;
38911;SDS011;28444;48.056;14.408;2022-12-18T03:09:20;63.63;;;27.27;;
38911;SDS011;28444;48.056;14.408;2022-12-18T03:11:53;63.05;;;27.08;;
38911;SDS011;28444;48.056;14.408;2022-12-18T03:14:41;60.65;;;26.73;;
38911;SDS011;28444;48.056;14.408;2022-12-18T03:17:12;63.28;;;27.45;;
38911;SDS011;28444;48.056;14.408;2022-12-18T03:19:44;56.28;;;27.85;;
38911;SDS011;28444;48.056;14.408;2022-12-18T03:22:13;63.15;;;28.90;;
38911;SDS011;28444;48.056;14.408;2022-12-18T03:24:42;59.63;;;28.08;;
38911;SDS011;28444;48.056;14.408;2022-12-18T03:27:12;60.65;;;26.73;;
38911;SDS011;28444;48.056;14.408;2022-12-18T03:29:44;53.72;;;27.00;;
38911;SDS011;28444;48.056;14.408;2022-12-18T03:32:16;53.00;;;25.63;;
38911;SDS011;28444;48.056;14.408;2022-12-18T03:34:53;50.63;;;25.67;;
38911;SDS011;28444;48.056;14.408;2022-12-18T03:37:23;51.95;;;24.80;;
38911;SDS011;28444;48.056;14.408;2022-12-18T03:39:50;57.00;;;24.40;;
38911;SDS011;28444;48.056;14.408;2022-12-18T03:42:26;58.22;;;27.17;;
38911;SDS011;28444;48.056;14.408;2022-12-18T03:45:09;58.88;;;25.65;;
38911;SDS011;28444;48.056;14.408;2022-12-18T03:49:11;51.60;;;25.70;;
38911;SDS011;28444;48.056;14.408;2022-12-18T03:50:49;46.50;;;21.42;;
38911;SDS011;28444;48.056;14.408;2022-12-18T03:53:51;48.97;;;23.10;;
38911;SDS011;28444;48.056;14.408;2022-12-18T03:56:25;53.78;;;22.52;;
38911;SDS011;28444;48.056;14.408;2022-12-18T03:58:59;52.63;;;23.48;;
38911;SDS011;28444;48.056;14.408;2022-12-18T04:01:34;49.45;;;24.42;;
38911;SDS011;28444;48.056;14.408;2022-12-18T04:04:04;61.83;;;26.42;;
38911;SDS011;28444;48.056;14.408;2022-12-18T04:06:33;53.95;;;23.92;;
38911;SDS011;28444;48.056;14.408;2022-12-18T04:09:00;63.00;;;28.05;;
38911;SDS011;28444;48.056;14.408;2022-12-18T04:11:27;60.15;;;26.52;;
38911;SDS011;28444;48.056;14.408;2022-12-18T04:13:57;60.85;;;26.40;;
38911;SDS011;28444;48.056;14.408;2022-12-18T04:16:26;59.03;;;25.75;;
38911;SDS011;28444;48.056;14.408;2022-12-18T04:18:53;62.42;;;26.60;;
38911;SDS011;28444;48.056;14.408;2022-12-18T04:21:20;60.70;;;26.80;;
38911;SDS011;28444;48.056;14.408;2022-12-18T04:23:47;60.10;;;26.52;;
38911;SDS011;28444;48.056;14.408;2022-12-18T04:26:14;61.63;;;26.30;;
38911;SDS011;28444;48.056;14.408;2022-12-18T04:28:40;65.30;;;27.27;;
38911;SDS011;28444;48.056;14.408;2022-12-18T04:31:07;51.95;;;24.40;;
38911;SDS011;28444;48.056;14.408;2022-12-18T04:33:34;54.47;;;22.90;;
38911;SDS011;28444;48.056;14.408;2022-12-18T04:36:01;59.38;;;25.05;;
38911;SDS011;28444;48.056;14.408;2022-12-18T04:38:27;54.65;;;22.98;;
38911;SDS011;28444;48.056;14.408;2022-12-18T04:40:54;58.72;;;23.45;;
38911;SDS011;28444;48.056;14.408;2022-12-18T04:43:21;60.58;;;24.30;;
38911;SDS011;28444;48.056;14.408;2022-12-18T04:45:47;58.85;;;24.95;;
38911;SDS011;28444;48.056;14.408;2022-12-18T04:48:14;60.70;;;26.80;;
38911;SDS011;28444;48.056;14.408;2022-12-18T04:50:41;66.30;;;24.55;;
38911;SDS011;28444;48.056;14.408;2022-12-18T04:53:07;52.85;;;25.88;;
38911;SDS011;28444;48.056;14.408;2022-12-18T04:55:35;68.20;;;27.33;;
38911;SDS011;28444;48.056;14.408;2022-12-18T04:58:01;61.15;;;24.35;;
38911;SDS011;28444;48.056;14.408;2022-12-18T05:00:28;63.40;;;26.60;;
38911;SDS011;28444;48.056;14.408;2022-12-18T05:02:55;60.03;;;25.42;;
38911;SDS011;28444;48.056;14.408;2022-12-18T05:05:21;64.80;;;26.40;;
38911;SDS011;28444;48.056;14.408;2022-12-18T05:07:48;66.38;;;25.50;;
38911;SDS011;28444;48.056;14.408;2022-12-18T05:10:15;62.35;;;25.98;;
38911;SDS011;28444;48.056;14.408;2022-12-18T05:12:41;60.38;;;24.60;;
38911;SDS011;28444;48.056;14.408;2022-12-18T05:15:27;74.13;;;25.90;;
38911;SDS011;28444;48.056;14.408;2022-12-18T05:17:58;61.25;;;25.75;;
38911;SDS011;28444;48.056;14.408;2022-12-18T05:20:25;63.63;;;26.35;;
38911;SDS011;28444;48.056;14.408;2022-12-18T05:22:53;72.07;;;29.45;;
38911;SDS011;28444;48.056;14.408;2022-12-18T05:25:20;70.20;;;27.92;;
38911;SDS011;28444;48.056;14.408;2022-12-18T05:27:47;78.90;;;30.38;;
38911;SDS011;28444;48.056;14.408;2022-12-18T05:30:15;73.05;;;29.23;;
38911;SDS011;28444;48.056;14.408;2022-12-18T05:32:42;93.03;;;30.70;;
38911;SDS011;28444;48.056;14.408;2022-12-18T05:35:09;73.35;;;27.77;;
38911;SDS011;28444;48.056;14.408;2022-12-18T05:37:37;82.00;;;28.75;;
38911;SDS011;28444;48.056;14.408;2022-12-18T05:40:08;80.33;;;29.90;;
38911;SDS011;28444;48.056;14.408;2022-12-18T05:42:36;73.90;;;30.92;;
38911;SDS011;28444;48.056;14.408;2022-12-18T05:45:03;80.00;;;31.60;;
38911;SDS011;28444;48.056;14.408;2022-12-18T05:47:30;79.75;;;31.88;;
38911;SDS011;28444;48.056;14.408;2022-12-18T05:49:57;76.47;;;30.27;;
38911;SDS011;28444;48.056;14.408;2022-12-18T05:52:23;99.97;;;30.73;;
38911;SDS011;28444;48.056;14.408;2022-12-18T05:54:50;100.95;;;40.58;;
38911;SDS011;28444;48.056;14.408;2022-12-18T05:57:17;81.38;;;32.85;;
38911;SDS011;28444;48.056;14.408;2022-12-18T05:59:44;73.40;;;31.20;;
38911;SDS011;28444;48.056;14.408;2022-12-18T06:02:10;66.60;;;29.25;;
38911;SDS011;28444;48.056;14.408;2022-12-18T06:04:37;62.17;;;26.33;;
38911;SDS011;28444;48.056;14.408;2022-12-18T06:07:04;78.28;;;28.95;;
38911;SDS011;28444;48.056;14.408;2022-12-18T06:09:31;84.63;;;34.53;;
38911;SDS011;28444;48.056;14.408;2022-12-18T06:11:58;125.78;;;65.40;;
38911;SDS011;28444;48.056;14.408;2022-12-18T06:14:25;77.60;;;40.38;;
38911;SDS011;28444;48.056;14.408;2022-12-18T06:16:51;71.45;;;28.83;;
38911;SDS011;28444;48.056;14.408;2022-12-18T06:19:18;58.33;;;25.85;;
38911;SDS011;28444;48.056;14.408;2022-12-18T06:21:46;59.50;;;25.90;;
38911;SDS011;28444;48.056;14.408;2022-12-18T06:24:13;58.15;;;26.63;;
38911;SDS011;28444;48.056;14.408;2022-12-18T06:26:39;61.60;;;26.55;;
38911;SDS011;28444;48.056;14.408;2022-12-18T06:29:06;58.97;;;29.20;;
38911;SDS011;28444;48.056;14.408;2022-12-18T06:31:33;62.47;;;28.45;;
38911;SDS011;28444;48.056;14.408;2022-12-18T06:34:01;67.57;;;30.17;;
38911;SDS011;28444;48.056;14.408;2022-12-18T06:36:30;59.70;;;27.25;;
38911;SDS011;28444;48.056;14.408;2022-12-18T06:38:56;57.05;;;24.90;;
38911;SDS011;28444;48.056;14.408;2022-12-18T06:41:23;58.85;;;27.77;;
38911;SDS011;28444;48.056;14.408;2022-12-18T06:43:50;73.68;;;30.88;;
38911;SDS011;28444;48.056;14.408;2022-12-18T06:46:23;47.53;;;24.65;;
38911;SDS011;28444;48.056;14.408;2022-12-18T06:48:50;48.42;;;20.42;;
38911;SDS011;28444;48.056;14.408;2022-12-18T06:51:17;55.17;;;23.05;;
38911;SDS011;28444;48.056;14.408;2022-12-18T06:53:47;43.83;;;22.30;;
38911;SDS011;28444;48.056;14.408;2022-12-18T06:56:14;44.50;;;21.08;;
38911;SDS011;28444;48.056;14.408;2022-12-18T06:58:41;50.58;;;23.70;;
38911;SDS011;28444;48.056;14.408;2022-12-18T07:01:09;44.92;;;22.40;;
38911;SDS011;28444;48.056;14.408;2022-12-18T07:03:40;41.63;;;21.98;;
38911;SDS011;28444;48.056;14.408;2022-12-18T07:06:15;50.42;;;22.42;;
38911;SDS011;28444;48.056;14.408;2022-12-18T07:08:44;41.75;;;21.10;;
38911;SDS011;28444;48.056;14.408;2022-12-18T07:11:11;51.75;;;23.30;;
38911;SDS011;28444;48.056;14.408;2022-12-18T07:13:38;48.17;;;22.70;;
38911;SDS011;28444;48.056;14.408;2022-12-18T07:16:09;47.40;;;23.65;;
38911;SDS011;28444;48.056;14.408;2022-12-18T07:18:50;46.95;;;24.60;;
38911;SDS011;28444;48.056;14.408;2022-12-18T07:21:18;50.95;;;23.90;;
38911;SDS011;28444;48.056;14.408;2022-12-18T07:23:45;62.53;;;23.02;;
38911;SDS011;28444;48.056;14.408;2022-12-18T07:26:15;52.33;;;23.23;;
38911;SDS011;28444;48.056;14.408;2022-12-18T07:28:43;47.90;;;22.63;;
38911;SDS011;28444;48.056;14.408;2022-12-18T07:31:14;47.28;;;25.48;;
38911;SDS011;28444;48.056;14.408;2022-12-18T07:33:43;49.00;;;25.88;;
38911;SDS011;28444;48.056;14.408;2022-12-18T07:36:10;57.17;;;24.42;;
38911;SDS011;28444;48.056;14.408;2022-12-18T07:38:37;86.75;;;26.05;;
38911;SDS011;28444;48.056;14.408;2022-12-18T07:41:05;68.05;;;28.50;;
38911;SDS011;28444;48.056;14.408;2022-12-18T07:43:33;66.22;;;28.77;;
38911;SDS011;28444;48.056;14.408;2022-12-18T07:46:01;63.88;;;27.17;;
38911;SDS011;28444;48.056;14.408;2022-12-18T07:48:28;80.95;;;30.48;;
38911;SDS011;28444;48.056;14.408;2022-12-18T07:51:01;68.80;;;26.73;;
38911;SDS011;28444;48.056;14.408;2022-12-18T07:53:30;67.72;;;29.63;;
38911;SDS011;28444;48.056;14.408;2022-12-18T07:55:58;60.50;;;27.58;;
38911;SDS011;28444;48.056;14.408;2022-12-18T07:58:46;59.25;;;26.67;;
38911;SDS011;28444;48.056;14.408;2022-12-18T08:01:13;62.30;;;25.65;;
38911;SDS011;28444;48.056;14.408;2022-12-18T08:03:40;56.88;;;23.65;;
38911;SDS011;28444;48.056;14.408;2022-12-18T08:06:08;61.35;;;24.13;;
38911;SDS011;28444;48.056;14.408;2022-12-18T08:08:35;49.67;;;24.55;;
38911;SDS011;28444;48.056;14.408;2022-12-18T08:11:03;54.13;;;23.40;;
38911;SDS011;28444;48.056;14.408;2022-12-18T08:13:29;48.05;;;24.10;;
38911;SDS011;28444;48.056;14.408;2022-12-18T08:16:00;49.85;;;23.52;;
38911;SDS011;28444;48.056;14.408;2022-12-18T08:18:33;55.60;;;21.65;;
38911;SDS011;28444;48.056;14.408;2022-12-18T08:21:11;54.08;;;21.80;;
38911;SDS011;28444;48.056;14.408;2022-12-18T08:23:39;56.20;;;22.95;;
38911;SDS011;28444;48.056;14.408;2022-12-18T08:26:09;58.83;;;23.00;;
38911;SDS011;28444;48.056;14.408;2022-12-18T08:28:36;69.85;;;27.60;;
38911;SDS011;28444;48.056;14.408;2022-12-18T08:31:03;53.97;;;24.67;;
38911;SDS011;28444;48.056;14.408;2022-12-18T08:33:31;57.17;;;22.50;;
38911;SDS011;28444;48.056;14.408;2022-12-18T08:35:58;51.83;;;23.42;;
38911;SDS011;28444;48.056;14.408;2022-12-18T08:38:26;48.53;;;21.75;;
38911;SDS011;28444;48.056;14.408;2022-12-18T08:41:02;59.90;;;22.73;;
38911;SDS011;28444;48.056;14.408;2022-12-18T08:43:31;53.85;;;22.27;;
38911;SDS011;28444;48.056;14.408;2022-12-18T08:46:16;61.00;;;24.45;;
38911;SDS011;28444;48.056;14.408;2022-12-18T08:48:47;54.78;;;26.65;;
38911;SDS011;28444;48.056;14.408;2022-12-18T08:51:16;60.70;;;25.30;;
38911;SDS011;28444;48.056;14.408;2022-12-18T08:53:43;61.30;;;26.42;;
38911;SDS011;28444;48.056;14.408;2022-12-18T08:56:13;63.45;;;25.88;;
38911;SDS011;28444;48.056;14.408;2022-12-18T08:58:40;89.78;;;31.60;;
38911;SDS011;28444;48.056;14.408;2022-12-18T09:01:08;103.50;;;36.63;;
38911;SDS011;28444;48.056;14.408;2022-12-18T09:03:37;60.00;;;28.10;;
38911;SDS011;28444;48.056;14.408;2022-12-18T09:06:04;63.78;;;29.75;;
38911;SDS011;28444;48.056;14.408;2022-12-18T09:08:32;72.55;;;30.45;;
38911;SDS011;28444;48.056;14.408;2022-12-18T09:10:58;93.97;;;35.13;;
38911;SDS011;28444;48.056;14.408;2022-12-18T09:13:25;73.65;;;30.45;;
38911;SDS011;28444;48.056;14.408;2022-12-18T09:15:52;69.03;;;35.97;;
38911;SDS011;28444;48.056;14.408;2022-12-18T09:18:20;69.25;;;28.00;;
38911;SDS011;28444;48.056;14.408;2022-12-18T09:20:49;61.42;;;30.10;;
38911;SDS011;28444;48.056;14.408;2022-12-18T09:23:17;53.58;;;25.27;;
38911;SDS011;28444;48.056;14.408;2022-12-18T09:25:44;60.53;;;26.20;;
38911;SDS011;28444;48.056;14.408;2022-12-18T09:28:12;63.05;;;26.52;;
38911;SDS011;28444;48.056;14.408;2022-12-18T09:30:41;60.88;;;24.48;;
38911;SDS011;28444;48.056;14.408;2022-12-18T09:33:10;52.78;;;22.75;;
38911;SDS011;28444;48.056;14.408;2022-12-18T09:35:37;52.88;;;25.42;;
38911;SDS011;28444;48.056;14.408;2022-12-18T09:38:05;45.45;;;22.25;;
38911;SDS011;28444;48.056;14.408;2022-12-18T09:40:36;53.58;;;24.15;;
38911;SDS011;28444;48.056;14.408;2022-12-18T09:43:09;66.65;;;25.13;;
38911;SDS011;28444;48.056;14.408;2022-12-18T09:45:50;57.78;;;27.40;;
38911;SDS011;28444;48.056;14.408;2022-12-18T09:51:23;48.28;;;22.45;;
38911;SDS011;28444;48.056;14.408;2022-12-18T09:54:01;51.75;;;23.42;;
38911;SDS011;28444;48.056;14.408;2022-12-18T09:56:34;49.40;;;24.85;;
38911;SDS011;28444;48.056;14.408;2022-12-18T09:59:04;48.03;;;20.98;;
38911;SDS011;28444;48.056;14.408;2022-12-18T10:01:32;45.08;;;21.38;;
38911;SDS011;28444;48.056;14.408;2022-12-18T10:04:09;46.40;;;20.15;;
38911;SDS011;28444;48.056;14.408;2022-12-18T10:09:24;48.55;;;21.05;;
38911;SDS011;28444;48.056;14.408;2022-12-18T10:12:08;52.65;;;23.48;;
38911;SDS011;28444;48.056;14.408;2022-12-18T10:15:01;49.22;;;21.40;;
38911;SDS011;28444;48.056;14.408;2022-12-18T10:18:00;75.38;;;29.40;;
38911;SDS011;28444;48.056;14.408;2022-12-18T10:20:48;59.58;;;22.75;;
38911;SDS011;28444;48.056;14.408;2022-12-18T10:23:19;45.42;;;23.90;;
38911;SDS011;28444;48.056;14.408;2022-12-18T10:26:07;56.05;;;24.73;;
38911;SDS011;28444;48.056;14.408;2022-12-18T10:28:36;45.00;;;20.90;;
38911;SDS011;28444;48.056;14.408;2022-12-18T10:31:06;40.38;;;20.83;;
38911;SDS011;28444;48.056;14.408;2022-12-18T10:33:40;53.70;;;28.48;;
38911;SDS011;28444;48.056;14.408;2022-12-18T10:36:07;48.00;;;26.92;;
38911;SDS011;28444;48.056;14.408;2022-12-18T10:38:34;42.90;;;23.25;;
38911;SDS011;28444;48.056;14.408;2022-12-18T10:41:01;54.80;;;25.08;;
38911;SDS011;28444;48.056;14.408;2022-12-18T10:43:29;49.03;;;21.17;;
38911;SDS011;28444;48.056;14.408;2022-12-18T10:45:59;48.88;;;21.70;;
38911;SDS011;28444;48.056;14.408;2022-12-18T10:48:33;39.97;;;21.45;;
38911;SDS011;28444;48.056;14.408;2022-12-18T10:51:02;35.72;;;19.33;;
38911;SDS011;28444;48.056;14.408;2022-12-18T10:53:38;46.95;;;19.85;;
38911;SDS011;28444;48.056;14.408;2022-12-18T10:56:08;37.05;;;19.00;;
38911;SDS011;28444;48.056;14.408;2022-12-18T10:58:36;36.47;;;19.25;;
38911;SDS011;28444;48.056;14.408;2022-12-18T11:06:52;45.50;;;20.23;;
38911;SDS011;28444;48.056;14.408;2022-12-18T11:09:27;45.08;;;20.70;;
38911;SDS011;28444;48.056;14.408;2022-12-18T11:11:56;41.53;;;19.35;;
38911;SDS011;28444;48.056;14.408;2022-12-18T11:14:27;38.30;;;19.08;;
38911;SDS011;28444;48.056;14.408;2022-12-18T11:16:57;37.97;;;18.40;;
38911;SDS011;28444;48.056;14.408;2022-12-18T11:19:45;43.50;;;19.02;;
38911;SDS011;28444;48.056;14.408;2022-12-18T11:22:29;42.17;;;20.52;;
38911;SDS011;28444;48.056;14.408;2022-12-18T11:25:04;45.55;;;21.02;;
38911;SDS011;28444;48.056;14.408;2022-12-18T11:28:44;44.95;;;21.42;;
38911;SDS011;28444;48.056;14.408;2022-12-18T11:31:08;44.20;;;21.17;;
38911;SDS011;28444;48.056;14.408;2022-12-18T11:33:39;46.22;;;20.40;;
38911;SDS011;28444;48.056;14.408;2022-12-18T11:36:36;52.03;;;21.15;;
38911;SDS011;28444;48.056;14.408;2022-12-18T11:39:12;42.83;;;19.58;;
38911;SDS011;28444;48.056;14.408;2022-12-18T11:41:54;40.38;;;19.08;;
38911;SDS011;28444;48.056;14.408;2022-12-18T11:47:38;49.87;;;20.97;;
38911;SDS011;28444;48.056;14.408;2022-12-18T11:50:12;39.05;;;20.35;;
38911;SDS011;28444;48.056;14.408;2022-12-18T11:52:42;39.78;;;21.05;;
38911;SDS011;28444;48.056;14.408;2022-12-18T11:55:13;41.25;;;21.85;;
38911;SDS011;28444;48.056;14.408;2022-12-18T11:57:46;41.33;;;20.67;;
38911;SDS011;28444;48.056;14.408;2022-12-18T12:00:21;46.85;;;19.77;;
38911;SDS011;28444;48.056;14.408;2022-12-18T12:08:38;40.53;;;20.05;;
38911;SDS011;28444;48.056;14.408;2022-12-18T12:14:43;50.80;;;21.45;;
38911;SDS011;28444;48.056;14.408;2022-12-18T12:17:29;52.55;;;24.05;;
38911;SDS011;28444;48.056;14.408;2022-12-18T12:20:15;51.78;;;23.75;;
38911;SDS011;28444;48.056;14.408;2022-12-18T12:22:56;48.13;;;20.90;;
38911;SDS011;28444;48.056;14.408;2022-12-18T12:25:55;41.45;;;22.80;;
38911;SDS011;28444;48.056;14.408;2022-12-18T12:30:24;63.03;;;25.38;;
38911;SDS011;28444;48.056;14.408;2022-12-18T12:32:20;145.82;;;43.53;;
38911;SDS011;28444;48.056;14.408;2022-12-18T12:35:15;176.90;;;53.85;;
38911;SDS011;28444;48.056;14.408;2022-12-18T12:38:00;116.57;;;38.45;;
38911;SDS011;28444;48.056;14.408;2022-12-18T12:40:59;117.55;;;36.50;;
38911;SDS011;28444;48.056;14.408;2022-12-18T12:43:35;189.00;;;55.45;;
38911;SDS011;28444;48.056;14.408;2022-12-18T12:46:17;95.15;;;36.03;;
38911;SDS011;28444;48.056;14.408;2022-12-18T12:49:09;82.32;;;31.20;;
38911;SDS011;28444;48.056;14.408;2022-12-18T12:51:46;92.13;;;34.97;;
38911;SDS011;28444;48.056;14.408;2022-12-18T12:54:17;152.50;;;48.28;;
38911;SDS011;28444;48.056;14.408;2022-12-18T12:57:30;64.93;;;26.88;;
38911;SDS011;28444;48.056;14.408;2022-12-18T13:04:31;60.15;;;26.65;;
38911;SDS011;28444;48.056;14.408;2022-12-18T13:05:58;62.60;;;27.58;;
38911;SDS011;28444;48.056;14.408;2022-12-18T13:08:31;55.65;;;27.10;;
38911;SDS011;28444;48.056;14.408;2022-12-18T13:11:28;57.03;;;25.13;;
38911;SDS011;28444;48.056;14.408;2022-12-18T13:14:36;52.20;;;24.67;;
38911;SDS011;28444;48.056;14.408;2022-12-18T13:17:26;52.67;;;25.48;;
38911;SDS011;28444;48.056;14.408;2022-12-18T13:20:06;55.78;;;23.83;;
38911;SDS011;28444;48.056;14.408;2022-12-18T13:22:43;47.63;;;25.00;;
38911;SDS011;28444;48.056;14.408;2022-12-18T13:28:12;70.28;;;28.02;;
38911;SDS011;28444;48.056;14.408;2022-12-18T13:33:38;55.67;;;24.27;;
38911;SDS011;28444;48.056;14.408;2022-12-18T13:36:32;52.80;;;23.58;;
38911;SDS011;28444;48.056;14.408;2022-12-18T13:39:34;57.30;;;27.08;;
38911;SDS011;28444;48.056;14.408;2022-12-18T13:51:57;68.65;;;27.45;;
38911;SDS011;28444;48.056;14.408;2022-12-18T13:54:59;92.40;;;34.92;;
38911;SDS011;28444;48.056;14.408;2022-12-18T13:57:30;70.68;;;32.42;;
38911;SDS011;28444;48.056;14.408;2022-12-18T14:00:14;74.13;;;31.13;;
38911;SDS011;28444;48.056;14.408;2022-12-18T14:02:55;54.35;;;26.90;;
38911;SDS011;28444;48.056;14.408;2022-12-18T14:05:23;63.03;;;29.75;;
38911;SDS011;28444;48.056;14.408;2022-12-18T14:08:10;64.70;;;27.48;;
38911;SDS011;28444;48.056;14.408;2022-12-18T14:10:40;88.88;;;33.20;;
38911;SDS011;28444;48.056;14.408;2022-12-18T14:13:36;75.50;;;32.08;;
38911;SDS011;28444;48.056;14.408;2022-12-18T14:16:03;180.32;;;64.97;;
38911;SDS011;28444;48.056;14.408;2022-12-18T14:18:39;70.65;;;33.50;;
38911;SDS011;28444;48.056;14.408;2022-12-18T14:21:18;82.97;;;33.47;;
38911;SDS011;28444;48.056;14.408;2022-12-18T14:23:47;84.95;;;34.95;;
38911;SDS011;28444;48.056;14.408;2022-12-18T14:31:25;73.80;;;33.85;;
38911;SDS011;28444;48.056;14.408;2022-12-18T14:33:54;73.78;;;34.17;;
38911;SDS011;28444;48.056;14.408;2022-12-18T14:36:25;81.38;;;48.78;;
38911;SDS011;28444;48.056;14.408;2022-12-18T14:38:55;76.70;;;33.50;;
38911;SDS011;28444;48.056;14.408;2022-12-18T14:41:23;73.85;;;32.72;;
38911;SDS011;28444;48.056;14.408;2022-12-18T14:43:51;70.25;;;30.90;;
38911;SDS011;28444;48.056;14.408;2022-12-18T14:46:25;76.78;;;32.30;;
38911;SDS011;28444;48.056;14.408;2022-12-18T14:49:00;68.85;;;33.15;;
38911;SDS011;28444;48.056;14.408;2022-12-18T14:52:03;72.40;;;34.30;;
38911;SDS011;28444;48.056;14.408;2022-12-18T14:54:36;82.20;;;33.53;;
38911;SDS011;28444;48.056;14.408;2022-12-18T14:57:22;83.05;;;34.38;;
38911;SDS011;28444;48.056;14.408;2022-12-18T14:59:52;92.00;;;45.17;;
38911;SDS011;28444;48.056;14.408;2022-12-18T15:02:25;85.30;;;43.28;;
38911;SDS011;28444;48.056;14.408;2022-12-18T15:05:04;79.28;;;39.60;;
38911;SDS011;28444;48.056;14.408;2022-12-18T15:07:48;174.20;;;107.22;;
38911;SDS011;28444;48.056;14.408;2022-12-18T15:10:26;99.22;;;46.33;;
38911;SDS011;28444;48.056;14.408;2022-12-18T15:15:48;78.65;;;34.10;;
38911;SDS011;28444;48.056;14.408;2022-12-18T15:18:16;60.83;;;30.17;;
38911;SDS011;28444;48.056;14.408;2022-12-18T15:26:13;74.18;;;34.60;;
38911;SDS011;28444;48.056;14.408;2022-12-18T15:31:23;63.95;;;28.95;;
38911;SDS011;28444;48.056;14.408;2022-12-18T15:36:39;63.40;;;28.10;;
38911;SDS011;28444;48.056;14.408;2022-12-18T15:39:09;65.32;;;27.70;;
38911;SDS011;28444;48.056;14.408;2022-12-18T15:41:38;76.78;;;30.17;;
38911;SDS011;28444;48.056;14.408;2022-12-18T15:44:20;70.97;;;30.20;;
38911;SDS011;28444;48.056;14.408;2022-12-18T15:46:49;82.97;;;28.25;;
38911;SDS011;28444;48.056;14.408;2022-12-18T15:49:16;68.63;;;28.38;;
38911;SDS011;28444;48.056;14.408;2022-12-18T15:51:42;65.80;;;29.70;;
38911;SDS011;28444;48.056;14.408;2022-12-18T15:54:11;66.30;;;29.38;;
38911;SDS011;28444;48.056;14.408;2022-12-18T15:56:42;64.63;;;29.10;;
38911;SDS011;28444;48.056;14.408;2022-12-18T15:59:27;71.70;;;30.15;;
38911;SDS011;28444;48.056;14.408;2022-12-18T16:01:55;76.35;;;30.70;;
38911;SDS011;28444;48.056;14.408;2022-12-18T16:04:22;62.88;;;27.55;;